الصفحة الرئيسية
METAR-TAF:

METAR-TAF

مطار :

مطار كوالالمبور الدولي

كوالالمبور, ماليزيا

دائرة عرض: 02-44N, خط طول: 101-42E, ارتفاع: 21 متر

مراقبة الطقس الحالي

تاريخ ووقت الإصدار 34 دقيقة قبل الساعة 17:30UTC
ريح 1 عقدةمن اتجاهات متغيرة
درجة الحرارة 28°درجة مئوية
الرطوبة 89%
ضغط 1009 hPa
الرؤية: 8000 متر
غيوم قليلة على ارتفاع 800 قدم
غيوم متفرقة على ارتفاع 3000 قدم

METAR: WMKK 141730Z VRB01KT 8000 FEW008 SCT030 28/26 Q1009 NOSIG

زمن: 02:04 (18:04 UTC)

توقعات

تاريخ ووقت الإصدار 1ساعة و 4 دقيقة قبل الساعة 17:00UTC
التوقعات صالحة من14 الساعة 18 UTC إلى 16 الساعة 00 UTC
ريح 2 عقدةمن اتجاهات متغيرة
الرؤية: 9000 متر
غيوم قليلة على ارتفاع 1700 قدم, مزنة ركامية.
نظرية الاحتمالات 30% :
مؤقت
من 14 الساعة 18 UTC إلى 14 الساعة 20 UTC
الرؤية: 5000 متر
غيوم قليلة على ارتفاع 1600 قدم, مزنة ركامية.
عاصفة رعدية, مطر خفيف,

TAF: WMKK 141700Z 1418/1600 VRB02KT 9000 FEW017CB PROB30 TEMPO 1418/1420 5000 -TSRA FEW016CB

أرصاد الطقس والتوقعات من أكثر من 4000 مطار (تقارير الطقس للمطار METAR والتنبؤ بالطقس بالمطارTAF).

المحطات المتاحة هي النقط الصفراء والحمراء على الخريطة.

حرك المؤشر فوق النقطة لمعرفة اسم المحطة.

ثم انقر لمعرفة أرصاد وتوقعات الطقس.

لتغيير الخارطة: اضغط على الأزرار الخضراء مع رمز الصليب الأسود للتكبير. على الزر الأخضر مع شرطة للتصغير، أو على الأسهم الخضراء للخرائط المجاورة.


METAR-TAF: